sensor_id;sensor_type;location;lat;lon;timestamp;P1;durP1;ratioP1;P2;durP2;ratioP2
31073;SDS011;17730;53.552;9.940;2022-11-18T00:01:32;28.25;;;15.77;;
31073;SDS011;17730;53.552;9.940;2022-11-18T00:03:57;26.63;;;14.60;;
31073;SDS011;17730;53.552;9.940;2022-11-18T00:06:24;27.08;;;15.32;;
31073;SDS011;17730;53.552;9.940;2022-11-18T00:08:51;26.58;;;14.20;;
31073;SDS011;17730;53.552;9.940;2022-11-18T00:11:18;28.63;;;15.50;;
31073;SDS011;17730;53.552;9.940;2022-11-18T00:14:11;28.42;;;15.82;;
31073;SDS011;17730;53.552;9.940;2022-11-18T00:16:51;31.90;;;16.23;;
31073;SDS011;17730;53.552;9.940;2022-11-18T00:19:18;29.98;;;15.20;;
31073;SDS011;17730;53.552;9.940;2022-11-18T00:21:45;28.13;;;15.52;;
31073;SDS011;17730;53.552;9.940;2022-11-18T00:24:10;25.75;;;15.40;;
31073;SDS011;17730;53.552;9.940;2022-11-18T00:26:36;30.00;;;15.80;;
31073;SDS011;17730;53.552;9.940;2022-11-18T00:29:02;27.35;;;15.70;;
31073;SDS011;17730;53.552;9.940;2022-11-18T00:31:28;29.58;;;15.63;;
31073;SDS011;17730;53.552;9.940;2022-11-18T00:33:54;31.33;;;16.27;;
31073;SDS011;17730;53.552;9.940;2022-11-18T00:36:19;29.10;;;16.08;;
31073;SDS011;17730;53.552;9.940;2022-11-18T00:38:45;30.30;;;17.10;;
31073;SDS011;17730;53.552;9.940;2022-11-18T00:41:12;31.08;;;16.00;;
31073;SDS011;17730;53.552;9.940;2022-11-18T00:43:39;31.13;;;15.95;;
31073;SDS011;17730;53.552;9.940;2022-11-18T00:46:05;28.35;;;16.02;;
31073;SDS011;17730;53.552;9.940;2022-11-18T00:48:32;28.23;;;15.63;;
31073;SDS011;17730;53.552;9.940;2022-11-18T00:51:08;28.88;;;15.90;;
31073;SDS011;17730;53.552;9.940;2022-11-18T00:53:36;30.95;;;16.35;;
31073;SDS011;17730;53.552;9.940;2022-11-18T00:56:01;28.85;;;14.90;;
31073;SDS011;17730;53.552;9.940;2022-11-18T00:58:27;28.83;;;15.48;;
31073;SDS011;17730;53.552;9.940;2022-11-18T01:00:54;28.67;;;15.73;;
31073;SDS011;17730;53.552;9.940;2022-11-18T01:03:19;33.05;;;17.30;;
31073;SDS011;17730;53.552;9.940;2022-11-18T01:05:45;32.80;;;16.10;;
31073;SDS011;17730;53.552;9.940;2022-11-18T01:08:12;31.73;;;16.92;;
31073;SDS011;17730;53.552;9.940;2022-11-18T01:10:38;33.05;;;17.15;;
31073;SDS011;17730;53.552;9.940;2022-11-18T01:13:04;32.28;;;17.15;;
31073;SDS011;17730;53.552;9.940;2022-11-18T01:15:53;30.55;;;16.42;;
31073;SDS011;17730;53.552;9.940;2022-11-18T01:18:22;34.90;;;17.85;;
31073;SDS011;17730;53.552;9.940;2022-11-18T01:20:49;32.55;;;17.10;;
31073;SDS011;17730;53.552;9.940;2022-11-18T01:23:16;31.98;;;16.38;;
31073;SDS011;17730;53.552;9.940;2022-11-18T01:25:43;32.45;;;16.95;;
31073;SDS011;17730;53.552;9.940;2022-11-18T01:28:10;34.65;;;18.02;;
31073;SDS011;17730;53.552;9.940;2022-11-18T01:30:37;31.90;;;17.17;;
31073;SDS011;17730;53.552;9.940;2022-11-18T01:33:05;33.45;;;17.70;;
31073;SDS011;17730;53.552;9.940;2022-11-18T01:35:34;31.10;;;17.63;;
31073;SDS011;17730;53.552;9.940;2022-11-18T01:38:05;34.17;;;17.58;;
31073;SDS011;17730;53.552;9.940;2022-11-18T01:40:31;36.35;;;18.80;;
31073;SDS011;17730;53.552;9.940;2022-11-18T01:42:58;36.55;;;18.90;;
31073;SDS011;17730;53.552;9.940;2022-11-18T01:48:24;34.65;;;18.48;;
31073;SDS011;17730;53.552;9.940;2022-11-18T01:50:48;34.55;;;17.45;;
31073;SDS011;17730;53.552;9.940;2022-11-18T01:53:23;35.95;;;18.77;;
31073;SDS011;17730;53.552;9.940;2022-11-18T01:55:53;36.90;;;19.25;;
31073;SDS011;17730;53.552;9.940;2022-11-18T01:58:24;36.00;;;18.52;;
31073;SDS011;17730;53.552;9.940;2022-11-18T02:00:52;36.17;;;19.02;;
31073;SDS011;17730;53.552;9.940;2022-11-18T02:03:18;38.88;;;20.10;;
31073;SDS011;17730;53.552;9.940;2022-11-18T02:05:45;37.88;;;20.20;;
31073;SDS011;17730;53.552;9.940;2022-11-18T02:08:13;34.83;;;19.20;;
31073;SDS011;17730;53.552;9.940;2022-11-18T02:10:39;43.17;;;20.95;;
31073;SDS011;17730;53.552;9.940;2022-11-18T02:13:05;39.30;;;20.63;;
31073;SDS011;17730;53.552;9.940;2022-11-18T02:20:55;43.15;;;21.35;;
31073;SDS011;17730;53.552;9.940;2022-11-18T02:29:31;42.58;;;22.42;;
31073;SDS011;17730;53.552;9.940;2022-11-18T02:32:16;46.55;;;21.55;;
31073;SDS011;17730;53.552;9.940;2022-11-18T02:34:55;47.85;;;23.63;;
31073;SDS011;17730;53.552;9.940;2022-11-18T02:42:38;40.67;;;21.40;;
31073;SDS011;17730;53.552;9.940;2022-11-18T02:45:07;43.67;;;23.33;;
31073;SDS011;17730;53.552;9.940;2022-11-18T02:47:38;46.03;;;22.30;;
31073;SDS011;17730;53.552;9.940;2022-11-18T02:50:08;47.00;;;23.95;;
31073;SDS011;17730;53.552;9.940;2022-11-18T02:52:37;44.92;;;23.27;;
31073;SDS011;17730;53.552;9.940;2022-11-18T02:55:05;42.92;;;22.48;;
31073;SDS011;17730;53.552;9.940;2022-11-18T02:57:34;37.72;;;21.13;;
31073;SDS011;17730;53.552;9.940;2022-11-18T03:00:02;42.38;;;22.17;;
31073;SDS011;17730;53.552;9.940;2022-11-18T03:02:38;38.60;;;21.25;;
31073;SDS011;17730;53.552;9.940;2022-11-18T03:05:09;42.80;;;21.97;;
31073;SDS011;17730;53.552;9.940;2022-11-18T03:07:42;41.40;;;20.85;;
31073;SDS011;17730;53.552;9.940;2022-11-18T03:10:10;38.30;;;21.05;;
31073;SDS011;17730;53.552;9.940;2022-11-18T03:12:40;43.83;;;22.90;;
31073;SDS011;17730;53.552;9.940;2022-11-18T03:18:38;41.80;;;21.27;;
31073;SDS011;17730;53.552;9.940;2022-11-18T03:21:30;39.38;;;21.38;;
31073;SDS011;17730;53.552;9.940;2022-11-18T03:26:47;39.72;;;21.42;;
31073;SDS011;17730;53.552;9.940;2022-11-18T03:29:20;40.75;;;21.38;;
31073;SDS011;17730;53.552;9.940;2022-11-18T03:32:05;40.38;;;22.20;;
31073;SDS011;17730;53.552;9.940;2022-11-18T03:34:36;39.67;;;20.70;;
31073;SDS011;17730;53.552;9.940;2022-11-18T03:37:10;40.92;;;21.42;;
31073;SDS011;17730;53.552;9.940;2022-11-18T03:39:40;37.65;;;20.30;;
31073;SDS011;17730;53.552;9.940;2022-11-18T03:42:11;38.20;;;20.15;;
31073;SDS011;17730;53.552;9.940;2022-11-18T03:44:44;38.17;;;20.48;;
31073;SDS011;17730;53.552;9.940;2022-11-18T03:47:19;33.75;;;19.63;;
31073;SDS011;17730;53.552;9.940;2022-11-18T03:49:52;39.20;;;20.75;;
31073;SDS011;17730;53.552;9.940;2022-11-18T03:52:26;37.58;;;20.70;;
31073;SDS011;17730;53.552;9.940;2022-11-18T03:54:56;39.70;;;20.42;;
31073;SDS011;17730;53.552;9.940;2022-11-18T03:57:34;36.15;;;20.50;;
31073;SDS011;17730;53.552;9.940;2022-11-18T04:00:08;40.38;;;20.23;;
31073;SDS011;17730;53.552;9.940;2022-11-18T04:02:37;36.30;;;19.42;;
31073;SDS011;17730;53.552;9.940;2022-11-18T04:05:04;33.95;;;18.65;;
31073;SDS011;17730;53.552;9.940;2022-11-18T04:07:33;35.42;;;19.83;;
31073;SDS011;17730;53.552;9.940;2022-11-18T04:10:08;32.93;;;18.83;;
31073;SDS011;17730;53.552;9.940;2022-11-18T04:13:04;35.50;;;18.95;;
31073;SDS011;17730;53.552;9.940;2022-11-18T04:15:42;33.25;;;18.13;;
31073;SDS011;17730;53.552;9.940;2022-11-18T04:18:08;33.17;;;17.55;;
31073;SDS011;17730;53.552;9.940;2022-11-18T04:20:34;29.92;;;17.40;;
31073;SDS011;17730;53.552;9.940;2022-11-18T04:23:01;31.15;;;18.20;;
31073;SDS011;17730;53.552;9.940;2022-11-18T04:25:28;33.78;;;18.65;;
31073;SDS011;17730;53.552;9.940;2022-11-18T04:27:54;34.58;;;18.85;;
31073;SDS011;17730;53.552;9.940;2022-11-18T04:30:20;29.92;;;17.33;;
31073;SDS011;17730;53.552;9.940;2022-11-18T04:32:46;34.45;;;18.95;;
31073;SDS011;17730;53.552;9.940;2022-11-18T04:35:11;33.83;;;18.52;;
31073;SDS011;17730;53.552;9.940;2022-11-18T04:37:38;31.90;;;18.83;;
31073;SDS011;17730;53.552;9.940;2022-11-18T04:40:03;32.80;;;18.90;;
31073;SDS011;17730;53.552;9.940;2022-11-18T04:42:29;33.65;;;17.92;;
31073;SDS011;17730;53.552;9.940;2022-11-18T04:44:55;33.10;;;18.73;;
31073;SDS011;17730;53.552;9.940;2022-11-18T04:47:21;36.33;;;19.67;;
31073;SDS011;17730;53.552;9.940;2022-11-18T04:49:46;32.80;;;19.08;;
31073;SDS011;17730;53.552;9.940;2022-11-18T04:52:12;34.70;;;18.77;;
31073;SDS011;17730;53.552;9.940;2022-11-18T04:54:38;34.72;;;20.00;;
31073;SDS011;17730;53.552;9.940;2022-11-18T04:57:04;31.95;;;18.95;;
31073;SDS011;17730;53.552;9.940;2022-11-18T04:59:30;36.97;;;20.33;;
31073;SDS011;17730;53.552;9.940;2022-11-18T05:01:56;40.15;;;20.27;;
31073;SDS011;17730;53.552;9.940;2022-11-18T05:04:23;34.30;;;19.30;;
31073;SDS011;17730;53.552;9.940;2022-11-18T05:06:51;35.85;;;20.67;;
31073;SDS011;17730;53.552;9.940;2022-11-18T05:09:17;35.17;;;19.92;;
31073;SDS011;17730;53.552;9.940;2022-11-18T05:11:43;37.00;;;20.52;;
31073;SDS011;17730;53.552;9.940;2022-11-18T05:14:28;35.08;;;19.85;;
31073;SDS011;17730;53.552;9.940;2022-11-18T05:16:54;37.83;;;20.10;;
31073;SDS011;17730;53.552;9.940;2022-11-18T05:19:21;37.50;;;21.33;;
31073;SDS011;17730;53.552;9.940;2022-11-18T05:21:47;37.42;;;20.58;;
31073;SDS011;17730;53.552;9.940;2022-11-18T05:24:13;38.45;;;22.00;;
31073;SDS011;17730;53.552;9.940;2022-11-18T05:26:39;38.65;;;21.15;;
31073;SDS011;17730;53.552;9.940;2022-11-18T05:29:05;39.42;;;20.88;;
31073;SDS011;17730;53.552;9.940;2022-11-18T05:31:31;39.25;;;21.35;;
31073;SDS011;17730;53.552;9.940;2022-11-18T05:33:57;40.40;;;22.00;;
31073;SDS011;17730;53.552;9.940;2022-11-18T05:36:23;40.67;;;22.25;;
31073;SDS011;17730;53.552;9.940;2022-11-18T05:38:48;40.00;;;22.27;;
31073;SDS011;17730;53.552;9.940;2022-11-18T05:41:14;41.10;;;21.77;;
31073;SDS011;17730;53.552;9.940;2022-11-18T05:44:13;37.95;;;21.48;;
31073;SDS011;17730;53.552;9.940;2022-11-18T05:46:39;38.13;;;22.75;;
31073;SDS011;17730;53.552;9.940;2022-11-18T05:49:05;38.17;;;21.13;;
31073;SDS011;17730;53.552;9.940;2022-11-18T05:51:31;39.53;;;21.80;;
31073;SDS011;17730;53.552;9.940;2022-11-18T05:53:57;39.42;;;22.73;;
31073;SDS011;17730;53.552;9.940;2022-11-18T05:56:27;41.30;;;22.88;;
31073;SDS011;17730;53.552;9.940;2022-11-18T05:58:54;41.38;;;22.33;;
31073;SDS011;17730;53.552;9.940;2022-11-18T06:01:28;40.58;;;21.65;;
31073;SDS011;17730;53.552;9.940;2022-11-18T06:03:59;40.47;;;23.00;;
31073;SDS011;17730;53.552;9.940;2022-11-18T06:06:28;42.30;;;23.05;;
31073;SDS011;17730;53.552;9.940;2022-11-18T06:08:55;41.20;;;23.02;;
31073;SDS011;17730;53.552;9.940;2022-11-18T06:11:28;39.72;;;22.30;;
31073;SDS011;17730;53.552;9.940;2022-11-18T06:14:00;41.47;;;22.77;;
31073;SDS011;17730;53.552;9.940;2022-11-18T06:16:33;41.90;;;23.08;;
31073;SDS011;17730;53.552;9.940;2022-11-18T06:19:04;42.70;;;22.98;;
31073;SDS011;17730;53.552;9.940;2022-11-18T06:21:30;43.58;;;24.63;;
31073;SDS011;17730;53.552;9.940;2022-11-18T06:23:55;41.53;;;22.92;;
31073;SDS011;17730;53.552;9.940;2022-11-18T06:26:21;43.92;;;23.52;;
31073;SDS011;17730;53.552;9.940;2022-11-18T06:28:47;41.90;;;24.17;;
31073;SDS011;17730;53.552;9.940;2022-11-18T06:31:13;46.83;;;24.23;;
31073;SDS011;17730;53.552;9.940;2022-11-18T06:33:40;43.92;;;24.00;;
31073;SDS011;17730;53.552;9.940;2022-11-18T06:36:06;45.70;;;24.95;;
31073;SDS011;17730;53.552;9.940;2022-11-18T06:38:33;44.63;;;23.83;;
31073;SDS011;17730;53.552;9.940;2022-11-18T06:40:59;45.45;;;25.05;;
31073;SDS011;17730;53.552;9.940;2022-11-18T06:43:25;48.53;;;25.13;;
31073;SDS011;17730;53.552;9.940;2022-11-18T06:46:04;47.17;;;23.90;;
31073;SDS011;17730;53.552;9.940;2022-11-18T06:48:50;39.88;;;22.25;;
31073;SDS011;17730;53.552;9.940;2022-11-18T06:51:16;46.15;;;23.73;;
31073;SDS011;17730;53.552;9.940;2022-11-18T06:53:41;48.45;;;25.05;;
31073;SDS011;17730;53.552;9.940;2022-11-18T06:56:11;44.67;;;23.90;;
31073;SDS011;17730;53.552;9.940;2022-11-18T06:58:39;52.22;;;26.05;;
31073;SDS011;17730;53.552;9.940;2022-11-18T07:01:08;49.03;;;25.90;;
31073;SDS011;17730;53.552;9.940;2022-11-18T07:03:40;45.63;;;24.05;;
31073;SDS011;17730;53.552;9.940;2022-11-18T07:06:07;48.65;;;24.77;;
31073;SDS011;17730;53.552;9.940;2022-11-18T07:08:34;49.88;;;25.08;;
31073;SDS011;17730;53.552;9.940;2022-11-18T07:11:02;47.97;;;25.27;;
31073;SDS011;17730;53.552;9.940;2022-11-18T07:13:29;54.47;;;25.77;;
31073;SDS011;17730;53.552;9.940;2022-11-18T07:16:05;51.00;;;25.77;;
31073;SDS011;17730;53.552;9.940;2022-11-18T07:18:33;49.78;;;25.15;;
31073;SDS011;17730;53.552;9.940;2022-11-18T07:21:02;48.28;;;25.00;;
31073;SDS011;17730;53.552;9.940;2022-11-18T07:23:31;50.08;;;25.95;;
31073;SDS011;17730;53.552;9.940;2022-11-18T07:25:58;50.60;;;25.48;;
31073;SDS011;17730;53.552;9.940;2022-11-18T07:28:24;50.80;;;25.98;;
31073;SDS011;17730;53.552;9.940;2022-11-18T07:30:50;45.90;;;25.08;;
31073;SDS011;17730;53.552;9.940;2022-11-18T07:33:15;52.20;;;25.83;;
31073;SDS011;17730;53.552;9.940;2022-11-18T07:35:41;48.45;;;26.05;;
31073;SDS011;17730;53.552;9.940;2022-11-18T07:38:07;51.17;;;25.35;;
31073;SDS011;17730;53.552;9.940;2022-11-18T07:40:33;47.78;;;25.15;;
31073;SDS011;17730;53.552;9.940;2022-11-18T07:42:59;43.50;;;23.30;;
31073;SDS011;17730;53.552;9.940;2022-11-18T07:45:24;48.80;;;25.05;;
31073;SDS011;17730;53.552;9.940;2022-11-18T07:47:50;45.60;;;23.98;;
31073;SDS011;17730;53.552;9.940;2022-11-18T07:50:16;44.97;;;23.27;;
31073;SDS011;17730;53.552;9.940;2022-11-18T07:52:42;42.00;;;21.55;;
31073;SDS011;17730;53.552;9.940;2022-11-18T07:55:08;45.95;;;23.25;;
31073;SDS011;17730;53.552;9.940;2022-11-18T07:57:33;45.40;;;22.88;;
31073;SDS011;17730;53.552;9.940;2022-11-18T07:59:59;43.75;;;22.73;;
31073;SDS011;17730;53.552;9.940;2022-11-18T08:02:24;43.13;;;22.10;;
31073;SDS011;17730;53.552;9.940;2022-11-18T08:04:50;45.60;;;23.50;;
31073;SDS011;17730;53.552;9.940;2022-11-18T08:07:16;38.60;;;20.73;;
31073;SDS011;17730;53.552;9.940;2022-11-18T08:09:41;36.70;;;19.05;;
31073;SDS011;17730;53.552;9.940;2022-11-18T08:12:07;34.78;;;19.17;;
31073;SDS011;17730;53.552;9.940;2022-11-18T08:14:33;36.92;;;19.50;;
31073;SDS011;17730;53.552;9.940;2022-11-18T08:16:58;39.13;;;21.08;;
31073;SDS011;17730;53.552;9.940;2022-11-18T08:19:24;33.50;;;18.92;;
31073;SDS011;17730;53.552;9.940;2022-11-18T08:21:49;37.45;;;19.80;;
31073;SDS011;17730;53.552;9.940;2022-11-18T08:24:15;35.42;;;20.02;;
31073;SDS011;17730;53.552;9.940;2022-11-18T08:26:41;37.00;;;18.63;;
31073;SDS011;17730;53.552;9.940;2022-11-18T08:29:06;34.47;;;18.48;;
31073;SDS011;17730;53.552;9.940;2022-11-18T08:31:32;35.55;;;18.75;;
31073;SDS011;17730;53.552;9.940;2022-11-18T08:36:26;33.97;;;17.30;;
31073;SDS011;17730;53.552;9.940;2022-11-18T08:38:56;38.83;;;17.27;;
31073;SDS011;17730;53.552;9.940;2022-11-18T08:41:33;36.70;;;17.92;;
31073;SDS011;17730;53.552;9.940;2022-11-18T08:44:04;29.00;;;16.85;;
31073;SDS011;17730;53.552;9.940;2022-11-18T08:46:30;32.63;;;17.48;;
31073;SDS011;17730;53.552;9.940;2022-11-18T08:48:56;34.15;;;17.65;;
31073;SDS011;17730;53.552;9.940;2022-11-18T08:51:22;30.50;;;17.92;;
31073;SDS011;17730;53.552;9.940;2022-11-18T08:53:48;30.08;;;15.95;;
31073;SDS011;17730;53.552;9.940;2022-11-18T08:56:15;28.55;;;16.75;;
31073;SDS011;17730;53.552;9.940;2022-11-18T08:58:42;33.00;;;16.20;;
31073;SDS011;17730;53.552;9.940;2022-11-18T09:01:09;32.13;;;16.90;;
31073;SDS011;17730;53.552;9.940;2022-11-18T09:03:35;31.60;;;17.40;;
31073;SDS011;17730;53.552;9.940;2022-11-18T09:06:05;31.70;;;17.23;;
31073;SDS011;17730;53.552;9.940;2022-11-18T09:08:31;29.50;;;16.25;;
31073;SDS011;17730;53.552;9.940;2022-11-18T09:10:56;33.33;;;17.95;;
31073;SDS011;17730;53.552;9.940;2022-11-18T09:13:22;34.72;;;19.08;;
31073;SDS011;17730;53.552;9.940;2022-11-18T09:15:48;36.85;;;19.27;;
31073;SDS011;17730;53.552;9.940;2022-11-18T09:18:14;33.88;;;18.25;;
31073;SDS011;17730;53.552;9.940;2022-11-18T09:20:39;35.60;;;18.90;;
31073;SDS011;17730;53.552;9.940;2022-11-18T09:23:05;32.22;;;17.83;;
31073;SDS011;17730;53.552;9.940;2022-11-18T09:25:31;38.75;;;19.40;;
31073;SDS011;17730;53.552;9.940;2022-11-18T09:27:57;31.35;;;17.77;;
31073;SDS011;17730;53.552;9.940;2022-11-18T09:30:23;30.23;;;17.55;;
31073;SDS011;17730;53.552;9.940;2022-11-18T09:32:48;31.23;;;17.58;;
31073;SDS011;17730;53.552;9.940;2022-11-18T09:35:14;32.20;;;17.67;;
31073;SDS011;17730;53.552;9.940;2022-11-18T09:37:40;27.92;;;16.60;;
31073;SDS011;17730;53.552;9.940;2022-11-18T09:40:05;33.72;;;17.88;;
31073;SDS011;17730;53.552;9.940;2022-11-18T09:45:33;29.95;;;16.40;;
31073;SDS011;17730;53.552;9.940;2022-11-18T09:48:15;31.38;;;17.13;;
31073;SDS011;17730;53.552;9.940;2022-11-18T09:50:43;29.17;;;15.73;;
31073;SDS011;17730;53.552;9.940;2022-11-18T09:53:30;27.95;;;16.27;;
31073;SDS011;17730;53.552;9.940;2022-11-18T09:55:55;29.90;;;16.45;;
31073;SDS011;17730;53.552;9.940;2022-11-18T09:58:25;25.48;;;16.58;;
31073;SDS011;17730;53.552;9.940;2022-11-18T10:00:59;27.75;;;16.25;;
31073;SDS011;17730;53.552;9.940;2022-11-18T10:03:26;28.08;;;15.95;;
31073;SDS011;17730;53.552;9.940;2022-11-18T10:05:57;24.92;;;14.52;;
31073;SDS011;17730;53.552;9.940;2022-11-18T10:08:34;27.50;;;15.18;;
31073;SDS011;17730;53.552;9.940;2022-11-18T10:11:06;25.42;;;15.27;;
31073;SDS011;17730;53.552;9.940;2022-11-18T10:13:42;26.73;;;14.57;;
31073;SDS011;17730;53.552;9.940;2022-11-18T10:24:49;25.55;;;14.18;;
31073;SDS011;17730;53.552;9.940;2022-11-18T10:27:19;29.13;;;14.25;;
31073;SDS011;17730;53.552;9.940;2022-11-18T10:29:47;26.90;;;15.02;;
31073;SDS011;17730;53.552;9.940;2022-11-18T10:32:21;26.48;;;13.70;;
31073;SDS011;17730;53.552;9.940;2022-11-18T10:34:54;23.38;;;13.07;;
31073;SDS011;17730;53.552;9.940;2022-11-18T10:37:33;23.83;;;12.27;;
31073;SDS011;17730;53.552;9.940;2022-11-18T10:40:01;23.75;;;12.32;;
31073;SDS011;17730;53.552;9.940;2022-11-18T10:42:33;24.27;;;12.35;;
31073;SDS011;17730;53.552;9.940;2022-11-18T10:45:37;20.48;;;11.93;;
31073;SDS011;17730;53.552;9.940;2022-11-18T10:50:26;23.50;;;11.65;;
31073;SDS011;17730;53.552;9.940;2022-11-18T10:52:54;23.48;;;11.85;;
31073;SDS011;17730;53.552;9.940;2022-11-18T10:55:21;20.00;;;10.48;;
31073;SDS011;17730;53.552;9.940;2022-11-18T10:57:49;16.92;;;10.07;;
31073;SDS011;17730;53.552;9.940;2022-11-18T11:00:31;18.52;;;11.02;;
31073;SDS011;17730;53.552;9.940;2022-11-18T11:02:59;21.23;;;11.52;;
31073;SDS011;17730;53.552;9.940;2022-11-18T11:05:39;18.55;;;10.38;;
31073;SDS011;17730;53.552;9.940;2022-11-18T11:08:12;16.55;;;9.73;;
31073;SDS011;17730;53.552;9.940;2022-11-18T11:10:57;20.23;;;10.35;;
31073;SDS011;17730;53.552;9.940;2022-11-18T11:13:26;14.65;;;8.23;;
31073;SDS011;17730;53.552;9.940;2022-11-18T11:15:55;15.80;;;9.52;;
31073;SDS011;17730;53.552;9.940;2022-11-18T11:18:27;18.17;;;9.27;;
31073;SDS011;17730;53.552;9.940;2022-11-18T11:21:10;18.60;;;10.27;;
31073;SDS011;17730;53.552;9.940;2022-11-18T11:23:37;15.70;;;8.82;;
31073;SDS011;17730;53.552;9.940;2022-11-18T11:26:04;16.75;;;8.90;;
31073;SDS011;17730;53.552;9.940;2022-11-18T11:28:52;14.68;;;8.15;;
31073;SDS011;17730;53.552;9.940;2022-11-18T11:33:51;15.57;;;9.35;;
31073;SDS011;17730;53.552;9.940;2022-11-18T12:06:44;17.98;;;9.00;;
31073;SDS011;17730;53.552;9.940;2022-11-18T12:09:18;17.00;;;7.75;;
31073;SDS011;17730;53.552;9.940;2022-11-18T12:11:52;17.52;;;8.80;;
31073;SDS011;17730;53.552;9.940;2022-11-18T12:14:36;17.63;;;8.38;;
31073;SDS011;17730;53.552;9.940;2022-11-18T12:17:13;17.00;;;8.38;;
31073;SDS011;17730;53.552;9.940;2022-11-18T12:19:47;16.05;;;8.20;;
31073;SDS011;17730;53.552;9.940;2022-11-18T12:22:13;16.73;;;8.60;;
31073;SDS011;17730;53.552;9.940;2022-11-18T12:24:39;18.40;;;8.93;;
31073;SDS011;17730;53.552;9.940;2022-11-18T12:30:04;16.25;;;8.43;;
31073;SDS011;17730;53.552;9.940;2022-11-18T12:32:42;16.67;;;7.82;;
31073;SDS011;17730;53.552;9.940;2022-11-18T12:46:29;19.58;;;10.05;;
31073;SDS011;17730;53.552;9.940;2022-11-18T12:51:45;17.00;;;8.43;;
31073;SDS011;17730;53.552;9.940;2022-11-18T12:54:54;14.32;;;7.00;;
31073;SDS011;17730;53.552;9.940;2022-11-18T12:57:14;14.60;;;8.18;;
31073;SDS011;17730;53.552;9.940;2022-11-18T12:59:44;18.75;;;8.82;;
31073;SDS011;17730;53.552;9.940;2022-11-18T13:04:42;14.00;;;7.57;;
31073;SDS011;17730;53.552;9.940;2022-11-18T13:07:09;19.63;;;8.40;;
31073;SDS011;17730;53.552;9.940;2022-11-18T13:09:55;14.15;;;7.70;;
31073;SDS011;17730;53.552;9.940;2022-11-18T13:12:21;13.02;;;7.32;;
31073;SDS011;17730;53.552;9.940;2022-11-18T13:14:50;16.02;;;7.90;;
31073;SDS011;17730;53.552;9.940;2022-11-18T13:17:36;14.75;;;8.00;;
31073;SDS011;17730;53.552;9.940;2022-11-18T13:20:31;13.45;;;7.43;;
31073;SDS011;17730;53.552;9.940;2022-11-18T13:23:00;13.10;;;6.68;;
31073;SDS011;17730;53.552;9.940;2022-11-18T13:28:41;14.18;;;7.15;;
31073;SDS011;17730;53.552;9.940;2022-11-18T13:33:52;17.45;;;7.40;;
31073;SDS011;17730;53.552;9.940;2022-11-18T13:36:18;15.27;;;7.68;;
31073;SDS011;17730;53.552;9.940;2022-11-18T13:38:59;21.10;;;8.48;;
31073;SDS011;17730;53.552;9.940;2022-11-18T13:41:26;17.17;;;7.07;;
31073;SDS011;17730;53.552;9.940;2022-11-18T13:46:43;16.60;;;7.38;;
31073;SDS011;17730;53.552;9.940;2022-11-18T13:49:15;14.20;;;6.95;;
31073;SDS011;17730;53.552;9.940;2022-11-18T13:51:44;14.00;;;7.40;;
31073;SDS011;17730;53.552;9.940;2022-11-18T13:54:10;13.65;;;7.22;;
31073;SDS011;17730;53.552;9.940;2022-11-18T13:56:41;11.13;;;6.22;;
31073;SDS011;17730;53.552;9.940;2022-11-18T13:59:12;10.77;;;5.82;;
31073;SDS011;17730;53.552;9.940;2022-11-18T14:01:42;13.45;;;6.07;;
31073;SDS011;17730;53.552;9.940;2022-11-18T14:06:43;10.15;;;5.60;;
31073;SDS011;17730;53.552;9.940;2022-11-18T14:14:34;13.23;;;5.32;;
31073;SDS011;17730;53.552;9.940;2022-11-18T14:19:40;16.25;;;5.80;;
31073;SDS011;17730;53.552;9.940;2022-11-18T14:22:10;11.65;;;5.15;;
31073;SDS011;17730;53.552;9.940;2022-11-18T14:24:43;11.07;;;4.50;;
31073;SDS011;17730;53.552;9.940;2022-11-18T14:38:42;13.32;;;5.80;;
31073;SDS011;17730;53.552;9.940;2022-11-18T14:41:09;11.23;;;5.55;;
31073;SDS011;17730;53.552;9.940;2022-11-18T14:43:36;20.85;;;6.13;;
31073;SDS011;17730;53.552;9.940;2022-11-18T14:46:03;10.65;;;5.10;;
31073;SDS011;17730;53.552;9.940;2022-11-18T14:48:30;11.63;;;5.90;;
31073;SDS011;17730;53.552;9.940;2022-11-18T14:50:56;11.40;;;4.85;;
31073;SDS011;17730;53.552;9.940;2022-11-18T14:53:22;13.23;;;5.88;;
31073;SDS011;17730;53.552;9.940;2022-11-18T14:55:49;12.45;;;4.60;;
31073;SDS011;17730;53.552;9.940;2022-11-18T14:58:16;10.35;;;5.93;;
31073;SDS011;17730;53.552;9.940;2022-11-18T15:00:42;8.27;;;4.53;;
31073;SDS011;17730;53.552;9.940;2022-11-18T15:03:10;10.18;;;4.93;;
31073;SDS011;17730;53.552;9.940;2022-11-18T15:05:36;8.38;;;4.95;;
31073;SDS011;17730;53.552;9.940;2022-11-18T15:08:02;9.73;;;5.63;;
31073;SDS011;17730;53.552;9.940;2022-11-18T15:10:28;11.27;;;5.97;;
31073;SDS011;17730;53.552;9.940;2022-11-18T15:12:54;10.98;;;6.13;;
31073;SDS011;17730;53.552;9.940;2022-11-18T15:15:20;11.88;;;4.78;;
31073;SDS011;17730;53.552;9.940;2022-11-18T15:17:46;12.40;;;5.22;;
31073;SDS011;17730;53.552;9.940;2022-11-18T15:20:12;19.77;;;9.07;;
31073;SDS011;17730;53.552;9.940;2022-11-18T15:22:40;12.15;;;5.05;;
31073;SDS011;17730;53.552;9.940;2022-11-18T15:25:06;10.38;;;5.05;;
31073;SDS011;17730;53.552;9.940;2022-11-18T15:27:33;12.90;;;6.07;;
31073;SDS011;17730;53.552;9.940;2022-11-18T15:29:58;16.27;;;6.13;;
31073;SDS011;17730;53.552;9.940;2022-11-18T15:32:24;11.13;;;5.20;;
31073;SDS011;17730;53.552;9.940;2022-11-18T15:34:50;10.38;;;6.15;;
31073;SDS011;17730;53.552;9.940;2022-11-18T15:37:16;10.30;;;5.35;;
31073;SDS011;17730;53.552;9.940;2022-11-18T15:39:42;19.55;;;7.78;;
31073;SDS011;17730;53.552;9.940;2022-11-18T15:42:08;17.23;;;7.95;;
31073;SDS011;17730;53.552;9.940;2022-11-18T15:44:34;14.65;;;6.53;;
31073;SDS011;17730;53.552;9.940;2022-11-18T15:47:00;18.35;;;8.05;;
31073;SDS011;17730;53.552;9.940;2022-11-18T15:49:26;17.02;;;7.22;;
31073;SDS011;17730;53.552;9.940;2022-11-18T15:51:52;17.10;;;7.05;;
31073;SDS011;17730;53.552;9.940;2022-11-18T15:54:18;13.35;;;6.57;;
31073;SDS011;17730;53.552;9.940;2022-11-18T15:56:43;13.75;;;6.43;;
31073;SDS011;17730;53.552;9.940;2022-11-18T15:59:10;14.80;;;6.97;;
31073;SDS011;17730;53.552;9.940;2022-11-18T16:01:38;13.50;;;5.90;;
31073;SDS011;17730;53.552;9.940;2022-11-18T16:04:07;10.32;;;4.70;;
31073;SDS011;17730;53.552;9.940;2022-11-18T16:06:35;12.05;;;5.90;;
31073;SDS011;17730;53.552;9.940;2022-11-18T16:09:01;16.65;;;7.80;;
31073;SDS011;17730;53.552;9.940;2022-11-18T16:11:28;15.40;;;6.32;;
31073;SDS011;17730;53.552;9.940;2022-11-18T16:14:13;17.73;;;8.13;;
31073;SDS011;17730;53.552;9.940;2022-11-18T16:16:41;13.45;;;5.40;;
31073;SDS011;17730;53.552;9.940;2022-11-18T16:19:11;10.98;;;4.57;;
31073;SDS011;17730;53.552;9.940;2022-11-18T16:21:39;10.97;;;5.07;;
31073;SDS011;17730;53.552;9.940;2022-11-18T16:24:07;14.43;;;5.03;;
31073;SDS011;17730;53.552;9.940;2022-11-18T16:26:35;11.15;;;4.60;;
31073;SDS011;17730;53.552;9.940;2022-11-18T16:29:10;8.90;;;4.28;;
31073;SDS011;17730;53.552;9.940;2022-11-18T16:31:36;8.75;;;4.15;;
31073;SDS011;17730;53.552;9.940;2022-11-18T16:34:10;10.25;;;4.50;;
31073;SDS011;17730;53.552;9.940;2022-11-18T16:36:38;18.27;;;5.88;;
31073;SDS011;17730;53.552;9.940;2022-11-18T16:39:09;7.88;;;4.13;;
31073;SDS011;17730;53.552;9.940;2022-11-18T16:41:36;11.13;;;4.35;;
31073;SDS011;17730;53.552;9.940;2022-11-18T16:44:07;11.85;;;5.07;;